< < Back
Terminal Aerodrome Forecast


Current Version              Previous Versions:   1  2  3  4  5  6  7  8  9  

Terminal Aerodrome Forecast

556
FTUS42 KGSP 242320
TAFAND
TAF
KAND 242320Z 2500/2524 36002KT P6SM FEW200
     FM251600 25006KT P6SM SKC=



Latest METAR

957
SAUS70 KWBC 252000 RRH
MTRAND
METAR KAND 251956Z AUTO 26007KT 10SM CLR 23/09 A2999 RMK AO2 SLP150
T02280089


USA.gov is the U.S. government's official web portal to all federal, state and local government web resources and services.